createdAt,value
2022-09-15T00:02:25.908Z,5.30
2022-09-15T00:04:52.455Z,5.80
2022-09-15T00:07:18.963Z,5.97
2022-09-15T00:09:45.454Z,4.57
2022-09-15T00:12:11.942Z,7.55
2022-09-15T00:14:38.575Z,7.00
2022-09-15T00:17:05.297Z,6.90
2022-09-15T00:19:31.854Z,6.97
2022-09-15T00:21:58.321Z,6.45
2022-09-15T00:24:24.870Z,5.25
2022-09-15T00:26:51.335Z,5.72
2022-09-15T00:29:17.833Z,5.30
2022-09-15T00:31:44.320Z,5.05
2022-09-15T00:34:13.346Z,3.80
2022-09-15T00:36:40.265Z,4.80
2022-09-15T00:39:06.829Z,5.40
2022-09-15T00:41:33.639Z,4.78
2022-09-15T00:44:16.796Z,12.13
2022-09-15T00:46:58.715Z,5.18
2022-09-15T00:49:34.755Z,5.78
2022-09-15T00:52:15.746Z,5.03
2022-09-15T00:54:52.288Z,6.40
2022-09-15T00:57:27.866Z,6.45
2022-09-15T00:59:57.062Z,4.68
2022-09-15T01:02:27.974Z,3.30
2022-09-15T01:04:58.501Z,6.80
2022-09-15T01:07:32.179Z,6.18
2022-09-15T01:10:11.723Z,6.28
2022-09-15T01:12:40.217Z,4.25
2022-09-15T01:15:07.178Z,5.55
2022-09-15T01:18:04.187Z,5.70
2022-09-15T01:20:54.759Z,5.07
2022-09-15T01:23:48.727Z,4.85
2022-09-15T01:29:20.447Z,4.07
2022-09-15T01:32:19.108Z,3.15
2022-09-15T01:35:01.627Z,5.63
2022-09-15T01:37:33.489Z,4.15
2022-09-15T01:40:01.593Z,6.25
2022-09-15T01:42:30.507Z,4.10
2022-09-15T01:45:15.234Z,7.07
2022-09-15T01:47:41.942Z,5.20
2022-09-15T01:50:08.800Z,7.07
2022-09-15T01:52:36.405Z,7.22
2022-09-15T01:55:10.951Z,6.20
2022-09-15T01:57:37.456Z,4.55
2022-09-15T02:00:05.366Z,4.30
2022-09-15T02:02:37.827Z,6.03
2022-09-15T02:05:19.763Z,5.88
2022-09-15T02:08:05.047Z,7.28
2022-09-15T02:10:43.855Z,4.78
2022-09-15T02:13:18.773Z,4.65
2022-09-15T02:15:51.530Z,6.50
2022-09-15T02:18:25.426Z,5.75
2022-09-15T02:21:00.753Z,4.65
2022-09-15T02:23:31.404Z,6.75
2022-09-15T02:26:04.982Z,5.55
2022-09-15T02:28:35.976Z,3.97
2022-09-15T02:31:07.070Z,5.93
2022-09-15T02:33:39.159Z,4.30
2022-09-15T02:36:06.992Z,6.70
2022-09-15T02:38:37.271Z,4.50
2022-09-15T02:41:03.857Z,6.07
2022-09-15T02:43:31.266Z,5.32
2022-09-15T02:45:58.058Z,4.57
2022-09-15T02:48:25.307Z,5.18
2022-09-15T02:50:52.029Z,5.95
2022-09-15T02:53:18.517Z,6.00
2022-09-15T02:55:45.007Z,4.13
2022-09-15T02:58:11.478Z,4.35
2022-09-15T03:00:39.143Z,3.95
2022-09-15T03:03:05.638Z,4.70
2022-09-15T03:05:32.106Z,4.43
2022-09-15T03:07:58.618Z,5.80
2022-09-15T03:10:26.023Z,5.80
2022-09-15T03:12:54.460Z,6.25
2022-09-15T03:15:24.121Z,6.32
2022-09-15T03:17:51.731Z,6.13
2022-09-15T03:20:21.482Z,5.90
2022-09-15T03:22:49.570Z,3.50
2022-09-15T03:25:17.678Z,5.35
2022-09-15T03:27:44.410Z,7.00
2022-09-15T03:30:11.979Z,4.43
2022-09-15T03:32:38.583Z,4.53
2022-09-15T03:35:06.994Z,5.75
2022-09-15T03:37:33.855Z,4.45
2022-09-15T03:40:00.423Z,4.75
2022-09-15T03:42:27.170Z,6.45
2022-09-15T03:44:53.699Z,4.57
2022-09-15T03:47:20.233Z,6.20
2022-09-15T03:49:46.693Z,4.88
2022-09-15T03:52:13.231Z,4.22
2022-09-15T03:54:40.090Z,3.90
2022-09-15T03:57:06.677Z,4.82
2022-09-15T03:59:33.312Z,5.50
2022-09-15T04:01:59.847Z,5.32
2022-09-15T04:04:26.550Z,4.65
2022-09-15T04:06:53.210Z,4.53
2022-09-15T04:09:21.081Z,3.65
2022-09-15T04:11:47.829Z,4.57
2022-09-15T04:14:14.498Z,4.68
2022-09-15T04:16:41.139Z,4.47
2022-09-15T04:19:07.758Z,3.75
2022-09-15T04:21:34.707Z,4.00
2022-09-15T04:24:01.437Z,3.88
2022-09-15T04:26:31.661Z,3.58
2022-09-15T04:29:03.619Z,4.25
2022-09-15T04:31:31.038Z,4.63
2022-09-15T04:33:57.733Z,4.93
2022-09-15T04:36:26.861Z,3.50
2022-09-15T04:38:53.376Z,6.03
2022-09-15T04:41:20.869Z,4.38
2022-09-15T04:43:47.404Z,6.45
2022-09-15T04:46:15.097Z,4.50
2022-09-15T04:48:42.337Z,4.50
2022-09-15T04:51:12.868Z,4.20
2022-09-15T04:53:39.603Z,3.13
2022-09-15T04:56:08.765Z,4.65
2022-09-15T04:58:40.526Z,4.72
2022-09-15T05:01:09.252Z,4.20
2022-09-15T05:03:37.638Z,3.92
2022-09-15T05:06:05.997Z,3.88
2022-09-15T05:08:32.533Z,5.50
2022-09-15T05:11:01.297Z,3.53
2022-09-15T05:13:27.925Z,4.30
2022-09-15T05:15:54.518Z,4.18
2022-09-15T05:18:21.144Z,2.67
2022-09-15T05:20:47.643Z,4.75
2022-09-15T05:23:14.092Z,2.90
2022-09-15T05:25:40.535Z,4.97
2022-09-15T05:28:07.713Z,2.63
2022-09-15T05:30:41.440Z,6.47
2022-09-15T05:33:10.156Z,3.00
2022-09-15T05:35:36.627Z,5.97
2022-09-15T05:38:03.489Z,4.22
2022-09-15T05:40:30.000Z,3.70
2022-09-15T05:42:56.499Z,3.85
2022-09-15T05:45:22.983Z,2.95
2022-09-15T05:47:49.594Z,5.72
2022-09-15T05:50:16.277Z,3.78
2022-09-15T05:52:43.042Z,3.30
2022-09-15T05:55:10.059Z,4.10
2022-09-15T05:57:36.503Z,8.80
2022-09-15T06:00:04.726Z,4.18
2022-09-15T06:02:38.469Z,5.30
2022-09-15T06:05:05.374Z,4.43
2022-09-15T06:07:31.811Z,3.60
2022-09-15T06:09:58.337Z,2.92
2022-09-15T06:12:24.824Z,3.60
2022-09-15T06:14:52.839Z,3.33
2022-09-15T06:17:20.698Z,3.40
2022-09-15T06:19:47.152Z,3.70
2022-09-15T06:22:13.601Z,2.95
2022-09-15T06:24:40.135Z,2.53
2022-09-15T06:27:07.738Z,2.50
2022-09-15T06:29:34.362Z,3.25
2022-09-15T06:32:02.820Z,3.17
2022-09-15T06:34:29.783Z,4.13
2022-09-15T06:36:56.242Z,4.22
2022-09-15T06:39:22.921Z,4.03
2022-09-15T06:42:02.184Z,3.33
2022-09-15T06:44:29.208Z,5.82
2022-09-15T06:46:55.668Z,6.20
2022-09-15T06:49:22.295Z,3.38
2022-09-15T06:51:51.662Z,3.17
2022-09-15T06:54:18.188Z,4.20
2022-09-15T06:56:44.955Z,2.28
2022-09-15T06:59:12.727Z,3.45
2022-09-15T07:01:39.501Z,4.43
2022-09-15T07:04:08.895Z,4.13
2022-09-15T07:06:37.479Z,4.85
2022-09-15T07:09:05.451Z,2.15
2022-09-15T07:11:33.105Z,3.80
2022-09-15T07:13:59.659Z,3.50
2022-09-15T07:16:26.371Z,4.20
2022-09-15T07:18:55.950Z,5.35
2022-09-15T07:21:23.292Z,2.95
2022-09-15T07:23:49.826Z,4.00
2022-09-15T07:26:19.497Z,2.65
2022-09-15T07:28:53.573Z,2.80
2022-09-15T07:31:22.244Z,3.10
2022-09-15T07:33:49.307Z,3.10
2022-09-15T07:36:16.519Z,3.47
2022-09-15T07:38:50.781Z,3.78
2022-09-15T07:41:23.193Z,4.65
2022-09-15T07:43:51.744Z,3.22
2022-09-15T07:46:19.251Z,2.90
2022-09-15T07:48:48.150Z,5.00
2022-09-15T07:51:15.936Z,3.65
2022-09-15T07:53:44.382Z,3.47
2022-09-15T07:56:11.517Z,4.97
2022-09-15T07:58:38.041Z,4.00
2022-09-15T08:01:06.576Z,5.25
2022-09-15T08:03:33.456Z,4.85
2022-09-15T08:06:02.110Z,2.85
2022-09-15T08:08:29.569Z,5.13
2022-09-15T08:10:56.305Z,2.22
2022-09-15T08:13:23.111Z,5.40
2022-09-15T08:15:49.863Z,4.15
2022-09-15T08:18:16.608Z,3.92
2022-09-15T08:20:44.006Z,3.72
2022-09-15T08:23:11.591Z,3.70
2022-09-15T08:25:39.461Z,3.63
2022-09-15T08:28:06.068Z,3.45
2022-09-15T08:30:32.631Z,3.05
2022-09-15T08:32:59.119Z,2.95
2022-09-15T08:35:25.648Z,4.63
2022-09-15T08:37:54.127Z,2.67
2022-09-15T08:40:23.481Z,3.00
2022-09-15T08:42:53.749Z,4.47
2022-09-15T08:45:25.540Z,4.68
2022-09-15T08:47:58.599Z,3.83
2022-09-15T08:50:34.002Z,3.50
2022-09-15T08:53:09.639Z,2.38
2022-09-15T08:55:53.743Z,2.97
2022-09-15T08:58:22.745Z,4.50
2022-09-15T09:00:52.081Z,3.83
2022-09-15T09:03:38.415Z,2.80
2022-09-15T09:06:23.432Z,1.40
2022-09-15T09:09:02.522Z,5.65
2022-09-15T09:11:28.959Z,5.10
2022-09-15T09:14:05.935Z,3.40
2022-09-15T09:16:52.762Z,3.08
2022-09-15T09:19:46.368Z,2.58
2022-09-15T09:22:20.354Z,5.55
2022-09-15T09:24:50.398Z,2.97
2022-09-15T09:27:20.488Z,2.22
2022-09-15T09:30:14.280Z,3.95
2022-09-15T09:32:50.274Z,3.08
2022-09-15T09:35:47.154Z,3.05
2022-09-15T09:38:21.518Z,2.58
2022-09-15T09:40:49.412Z,2.92
2022-09-15T09:43:16.023Z,3.17
2022-09-15T09:45:42.836Z,4.80
2022-09-15T09:48:18.654Z,5.20
2022-09-15T09:50:45.283Z,3.45
2022-09-15T09:53:29.046Z,3.35
2022-09-15T09:56:16.038Z,3.92
2022-09-15T09:58:43.367Z,2.53
2022-09-15T10:01:18.602Z,2.28
2022-09-15T10:03:45.421Z,2.67
2022-09-15T10:06:15.670Z,3.88
2022-09-15T10:09:18.366Z,2.20
2022-09-15T10:11:48.556Z,4.13
2022-09-15T10:14:37.371Z,3.35
2022-09-15T10:17:09.891Z,3.25
2022-09-15T10:19:46.711Z,2.60
2022-09-15T10:22:35.785Z,2.80
2022-09-15T10:25:39.562Z,3.25
2022-09-15T10:28:16.899Z,5.05
2022-09-15T10:31:06.499Z,3.25
2022-09-15T10:33:35.493Z,2.40
2022-09-15T10:36:06.098Z,3.42
2022-09-15T10:38:48.689Z,2.50
2022-09-15T10:41:32.234Z,3.47
2022-09-15T10:46:41.022Z,3.08
2022-09-15T10:49:44.578Z,2.50
2022-09-15T10:52:32.923Z,3.13
2022-09-15T10:55:15.144Z,3.38
2022-09-15T10:57:59.717Z,3.53
2022-09-15T11:00:34.059Z,3.13
2022-09-15T11:03:38.761Z,3.95
2022-09-15T11:06:36.534Z,2.30
2022-09-15T11:09:21.599Z,2.40
2022-09-15T11:12:09.319Z,3.75
2022-09-15T11:14:48.809Z,3.08
2022-09-15T11:17:24.062Z,5.20
2022-09-15T11:20:03.167Z,6.05
2022-09-15T11:22:51.859Z,3.35
2022-09-15T11:25:25.345Z,2.45
2022-09-15T11:28:06.637Z,3.47
2022-09-15T11:30:42.449Z,3.88
2022-09-15T11:33:32.786Z,3.70
2022-09-15T11:36:13.141Z,2.83
2022-09-15T11:38:52.898Z,3.47
2022-09-15T11:41:26.542Z,2.90
2022-09-15T11:44:17.055Z,2.35
2022-09-15T11:46:58.785Z,3.35
2022-09-15T11:49:40.630Z,2.85
2022-09-15T11:52:32.613Z,2.38
2022-09-15T11:55:16.927Z,3.35
2022-09-15T11:57:54.243Z,6.70
2022-09-15T12:00:21.437Z,10.25
2022-09-15T12:03:00.245Z,5.95
2022-09-15T12:05:34.608Z,6.97
2022-09-15T12:08:10.117Z,6.57
2022-09-15T12:10:45.970Z,4.47
2022-09-15T12:13:20.956Z,3.42
2022-09-15T12:15:48.819Z,3.80
2022-09-15T12:18:44.863Z,2.63
2022-09-15T12:21:19.650Z,4.32
2022-09-15T12:23:54.691Z,3.22
2022-09-15T12:26:23.347Z,4.38
2022-09-15T12:29:30.205Z,5.05
2022-09-15T12:32:21.581Z,3.60
2022-09-15T12:35:01.868Z,3.85
2022-09-15T12:38:03.915Z,5.80
2022-09-15T12:40:30.451Z,5.13
2022-09-15T12:42:57.608Z,3.63
2022-09-15T12:45:36.209Z,4.35
2022-09-15T12:48:10.642Z,4.25
2022-09-15T12:50:40.953Z,3.63
2022-09-15T12:53:18.356Z,4.25
2022-09-15T12:55:52.403Z,2.97
2022-09-15T12:58:47.832Z,4.88
2022-09-15T13:01:26.415Z,3.55
2022-09-15T13:03:57.765Z,2.72
2022-09-15T13:06:26.658Z,2.72
2022-09-15T13:09:02.342Z,3.80
2022-09-15T13:11:40.098Z,5.45
2022-09-15T13:14:14.695Z,2.88
2022-09-15T13:16:41.155Z,2.60
2022-09-15T13:19:16.420Z,2.83
2022-09-15T13:22:03.309Z,2.13
2022-09-15T13:24:42.116Z,3.38
2022-09-15T13:27:09.151Z,3.78
2022-09-15T13:29:48.149Z,4.47
2022-09-15T13:32:32.956Z,2.42
2022-09-15T13:35:19.820Z,3.47
2022-09-15T13:38:17.105Z,3.47
2022-09-15T13:41:18.422Z,3.40
2022-09-15T13:44:06.841Z,3.65
2022-09-15T13:46:36.290Z,4.68
2022-09-15T13:49:18.189Z,4.68
2022-09-15T13:51:54.703Z,4.35
2022-09-15T13:54:21.342Z,4.60
2022-09-15T13:56:49.101Z,6.05
2022-09-15T13:59:24.901Z,7.40
2022-09-15T14:01:52.999Z,7.18
2022-09-15T14:04:24.375Z,5.93
2022-09-15T14:06:57.183Z,4.90
2022-09-15T14:09:33.336Z,4.78
2022-09-15T14:12:03.876Z,4.20
2022-09-15T14:14:53.773Z,4.05
2022-09-15T14:17:23.995Z,3.67
2022-09-15T14:19:53.449Z,2.38
2022-09-15T14:22:26.286Z,2.35
2022-09-15T14:24:54.064Z,2.45
2022-09-15T14:27:32.865Z,4.22
2022-09-15T14:30:04.334Z,2.92
2022-09-15T14:32:34.427Z,2.35
2022-09-15T14:35:05.570Z,2.35
2022-09-15T14:37:32.607Z,3.55
2022-09-15T14:40:01.561Z,2.58
2022-09-15T14:42:32.416Z,3.00
2022-09-15T14:48:01.579Z,3.75
2022-09-15T14:50:32.843Z,4.47
2022-09-15T14:53:06.589Z,5.60
2022-09-15T14:55:36.055Z,5.50
2022-09-15T14:58:15.107Z,6.50
2022-09-15T15:00:49.122Z,6.07
2022-09-15T15:03:27.540Z,5.40
2022-09-15T15:06:28.349Z,5.10
2022-09-15T15:09:06.439Z,9.27
2022-09-15T15:11:34.916Z,5.35
2022-09-15T15:14:05.759Z,8.43
2022-09-15T15:16:32.818Z,9.55
2022-09-15T15:18:59.717Z,7.18
2022-09-15T15:21:38.879Z,6.82
2022-09-15T15:24:20.299Z,6.85
2022-09-15T15:26:49.753Z,7.80
2022-09-15T15:29:47.016Z,9.02
2022-09-15T15:32:16.313Z,7.00
2022-09-15T15:34:57.997Z,6.20
2022-09-15T15:37:29.791Z,8.40
2022-09-15T15:39:58.233Z,6.38
2022-09-15T15:42:26.184Z,7.85
2022-09-15T15:44:59.818Z,7.15
2022-09-15T15:47:30.562Z,7.10
2022-09-15T15:50:13.408Z,10.05
2022-09-15T15:52:41.559Z,8.73
2022-09-15T15:55:08.661Z,10.52
2022-09-15T15:57:38.266Z,6.03
2022-09-15T16:00:20.435Z,11.65
2022-09-15T16:02:48.069Z,7.90
2022-09-15T16:05:14.683Z,7.80
2022-09-15T16:07:44.103Z,8.27
2022-09-15T16:10:16.086Z,7.00
2022-09-15T16:12:42.951Z,6.30
2022-09-15T16:15:14.129Z,5.22
2022-09-15T16:17:46.033Z,5.20
2022-09-15T16:20:15.931Z,6.13
2022-09-15T16:22:43.325Z,5.97
2022-09-15T16:25:15.526Z,5.93
2022-09-15T16:27:41.991Z,8.18
2022-09-15T16:30:11.995Z,6.40
2022-09-15T16:32:40.086Z,5.07
2022-09-15T16:35:26.979Z,4.30
2022-09-15T16:37:53.703Z,5.55
2022-09-15T16:40:20.256Z,6.10
2022-09-15T16:42:47.934Z,4.40
2022-09-15T16:45:30.792Z,4.70
2022-09-15T16:47:58.818Z,7.47
2022-09-15T16:50:25.822Z,7.38
2022-09-15T16:52:52.931Z,7.57
2022-09-15T16:55:29.556Z,4.65
2022-09-15T16:57:56.162Z,7.53
2022-09-15T17:00:22.772Z,6.55
2022-09-15T17:02:49.640Z,6.25
2022-09-15T17:05:27.991Z,8.82
2022-09-15T17:07:55.006Z,6.78
2022-09-15T17:10:21.495Z,6.80
2022-09-15T17:12:48.335Z,7.97
2022-09-15T17:15:21.746Z,6.60
2022-09-15T17:17:48.631Z,6.78
2022-09-15T17:20:15.523Z,6.88
2022-09-15T17:22:42.039Z,6.00
2022-09-15T17:25:17.996Z,6.97
2022-09-15T17:27:44.556Z,6.28
2022-09-15T17:30:12.137Z,8.50
2022-09-15T17:32:38.994Z,5.15
2022-09-15T17:35:20.739Z,6.50
2022-09-15T17:37:47.673Z,5.93
2022-09-15T17:40:15.654Z,7.63
2022-09-15T17:42:43.008Z,4.72
2022-09-15T17:45:14.218Z,9.10
2022-09-15T17:47:40.634Z,6.85
2022-09-15T17:50:07.392Z,6.68
2022-09-15T17:52:33.863Z,5.45
2022-09-15T17:55:01.582Z,5.68
2022-09-15T17:57:28.050Z,5.68
2022-09-15T17:59:54.519Z,6.18
2022-09-15T18:02:21.390Z,7.60
2022-09-15T18:04:47.997Z,7.25
2022-09-15T18:07:14.483Z,7.80
2022-09-15T18:09:40.970Z,7.22
2022-09-15T18:12:09.943Z,8.95
2022-09-15T18:14:36.506Z,8.43
2022-09-15T18:17:03.138Z,9.23
2022-09-15T18:19:29.616Z,8.80
2022-09-15T18:21:56.170Z,7.65
2022-09-15T18:24:23.102Z,7.53
2022-09-15T18:26:49.801Z,9.70
2022-09-15T18:29:16.248Z,6.72
2022-09-15T18:31:44.841Z,8.57
2022-09-15T18:34:11.318Z,7.30
2022-09-15T18:36:37.757Z,10.27
2022-09-15T18:39:05.142Z,10.45
2022-09-15T18:41:31.770Z,9.45
2022-09-15T18:43:58.246Z,9.73
2022-09-15T18:46:24.917Z,10.13
2022-09-15T18:48:51.431Z,9.38
2022-09-15T18:51:24.076Z,12.55
2022-09-15T18:53:55.468Z,13.70
2022-09-15T18:56:21.936Z,9.63
2022-09-15T18:58:52.962Z,7.47
2022-09-15T19:01:19.944Z,8.45
2022-09-15T19:03:46.604Z,9.48
2022-09-15T19:06:13.244Z,9.02
2022-09-15T19:08:40.351Z,10.00
2022-09-15T19:11:07.075Z,9.70
2022-09-15T19:13:35.590Z,10.07
2022-09-15T19:16:04.148Z,12.05
2022-09-15T19:18:31.411Z,10.35
2022-09-15T19:21:06.267Z,8.63
2022-09-15T19:23:32.782Z,9.75
2022-09-15T19:26:02.845Z,8.60
2022-09-15T19:28:29.434Z,11.30
2022-09-15T19:30:55.952Z,9.88
2022-09-15T19:33:22.580Z,10.15
2022-09-15T19:35:59.960Z,8.35
2022-09-15T19:38:31.889Z,10.55
2022-09-15T19:41:04.090Z,11.88
2022-09-15T19:43:30.618Z,10.20
2022-09-15T19:45:57.190Z,11.10
2022-09-15T19:48:23.742Z,9.85
2022-09-15T19:50:50.241Z,11.95
2022-09-15T19:53:16.970Z,10.90
2022-09-15T19:55:49.367Z,10.52
2022-09-15T19:58:15.949Z,14.80
2022-09-15T20:00:42.597Z,10.80
2022-09-15T20:03:09.107Z,11.65
2022-09-15T20:05:35.566Z,10.02
2022-09-15T20:08:03.700Z,11.07
2022-09-15T20:10:30.182Z,9.20
2022-09-15T20:12:56.633Z,11.02
2022-09-15T20:15:23.118Z,9.38
2022-09-15T20:17:49.593Z,11.80
2022-09-15T20:20:16.254Z,10.75
2022-09-15T20:22:42.776Z,8.10
2022-09-15T20:25:09.278Z,12.75
2022-09-15T20:27:35.735Z,10.80
2022-09-15T20:30:02.751Z,8.57
2022-09-15T20:32:29.364Z,10.63
2022-09-15T20:34:55.851Z,11.13
2022-09-15T20:37:23.068Z,10.15
2022-09-15T20:39:51.251Z,8.88
2022-09-15T20:42:18.031Z,9.88
2022-09-15T20:44:44.581Z,14.25
2022-09-15T20:47:11.208Z,16.23
2022-09-15T20:49:37.635Z,11.65
2022-09-15T20:52:04.251Z,10.40
2022-09-15T20:54:30.704Z,8.82
2022-09-15T20:56:57.134Z,11.55
2022-09-15T20:59:23.624Z,10.75
2022-09-15T21:01:50.132Z,12.02
2022-09-15T21:04:16.610Z,10.25
2022-09-15T21:06:43.155Z,10.57
2022-09-15T21:09:09.723Z,10.48
2022-09-15T21:11:36.287Z,11.77
2022-09-15T21:14:03.360Z,10.80
2022-09-15T21:16:30.028Z,11.45
2022-09-15T21:18:58.631Z,8.82
2022-09-15T21:21:29.999Z,11.15
2022-09-15T21:24:03.803Z,11.00
2022-09-15T21:26:59.007Z,12.73
2022-09-15T21:29:27.654Z,12.23
2022-09-15T21:31:57.998Z,13.20
2022-09-15T21:34:24.642Z,10.70
2022-09-15T21:36:53.425Z,11.07
2022-09-15T21:39:23.053Z,10.07
2022-09-15T21:41:50.075Z,13.80
2022-09-15T21:44:16.590Z,9.95
2022-09-15T21:46:44.890Z,12.00
2022-09-15T21:49:11.367Z,11.48
2022-09-15T21:51:37.859Z,10.57
2022-09-15T21:54:04.940Z,11.60
2022-09-15T21:56:31.409Z,13.63
2022-09-15T21:58:57.984Z,11.88
2022-09-15T22:01:30.252Z,12.48
2022-09-15T22:04:00.850Z,12.75
2022-09-15T22:06:36.009Z,12.80
2022-09-15T22:09:06.224Z,14.52
2022-09-15T22:11:33.428Z,10.35
2022-09-15T22:14:01.931Z,12.38
2022-09-15T22:16:28.883Z,13.35
2022-09-15T22:18:55.555Z,10.95
2022-09-15T22:21:27.393Z,14.77
2022-09-15T22:23:56.315Z,11.85
2022-09-15T22:26:26.183Z,12.55
2022-09-15T22:28:53.624Z,11.25
2022-09-15T22:31:21.700Z,13.18
2022-09-15T22:33:48.224Z,11.48
2022-09-15T22:36:17.750Z,11.02
2022-09-15T22:38:44.766Z,12.30
2022-09-15T22:41:13.445Z,12.88
2022-09-15T22:43:41.874Z,12.45
2022-09-15T22:46:09.117Z,11.55
2022-09-15T22:48:40.936Z,12.15
2022-09-15T22:51:10.057Z,13.05
2022-09-15T22:53:36.628Z,11.85
2022-09-15T22:56:06.849Z,9.80
2022-09-15T22:58:34.597Z,17.75
2022-09-15T23:01:08.575Z,14.18
2022-09-15T23:03:36.048Z,12.13
2022-09-15T23:06:03.230Z,15.40
2022-09-15T23:08:30.342Z,13.40
2022-09-15T23:11:05.960Z,12.52
2022-09-15T23:13:33.170Z,13.05
2022-09-15T23:15:59.949Z,9.95
2022-09-15T23:18:27.267Z,11.82
2022-09-15T23:20:58.901Z,11.68
2022-09-15T23:23:25.954Z,16.23
2022-09-15T23:25:52.823Z,10.75
2022-09-15T23:28:19.438Z,14.90
2022-09-15T23:30:46.461Z,13.20
2022-09-15T23:33:12.950Z,12.90
2022-09-15T23:35:39.422Z,15.38
2022-09-15T23:38:06.117Z,14.07
2022-09-15T23:40:33.081Z,13.57
2022-09-15T23:42:59.632Z,15.15
2022-09-15T23:45:26.101Z,14.40
2022-09-15T23:47:52.579Z,12.20
2022-09-15T23:50:19.031Z,11.38
2022-09-15T23:52:45.486Z,11.85
2022-09-15T23:55:11.937Z,11.27
2022-09-15T23:57:38.385Z,12.18
